createdAt,value
2019-03-29T00:02:47.143Z,103559.81
2019-03-29T00:07:51.180Z,103550.06
2019-03-29T00:12:56.978Z,103551.41
2019-03-29T00:17:59.379Z,103545.41
2019-03-29T00:23:01.634Z,103539.81
2019-03-29T00:28:03.813Z,103532.29
2019-03-29T00:33:07.075Z,103529.23
2019-03-29T00:38:18.197Z,103521.17
2019-03-29T00:43:20.758Z,103512.59
2019-03-29T00:48:22.919Z,103509.36
2019-03-29T00:53:25.033Z,103496.31
2019-03-29T00:58:27.350Z,103496.38
2019-03-29T01:03:30.133Z,103489.64
2019-03-29T01:08:32.298Z,103485.11
2019-03-29T01:13:34.436Z,103492.75
2019-03-29T01:18:37.941Z,103477.11
2019-03-29T01:23:40.736Z,103481.81
2019-03-29T01:28:43.423Z,103462.39
2019-03-29T01:33:46.454Z,103474.27
2019-03-29T01:38:48.571Z,103470.66
2019-03-29T01:43:51.272Z,103465.57
2019-03-29T01:48:53.551Z,103466.59
2019-03-29T01:53:56.029Z,103460.28
2019-03-29T01:58:58.344Z,103459.27
2019-03-29T02:04:00.475Z,103457.27
2019-03-29T02:09:04.983Z,103450.30
2019-03-29T02:14:07.284Z,103450.73
2019-03-29T02:19:09.495Z,103444.69
2019-03-29T02:24:12.059Z,103442.14
2019-03-29T02:29:14.419Z,103449.03
2019-03-29T02:34:17.243Z,103438.58
2019-03-29T02:39:19.423Z,103435.19
2019-03-29T02:44:21.710Z,103428.13
2019-03-29T02:49:24.836Z,103434.17
2019-03-29T02:54:27.258Z,103433.30
2019-03-29T02:59:29.414Z,103433.39
2019-03-29T03:04:31.509Z,103437.11
2019-03-29T03:09:33.660Z,103434.80
2019-03-29T03:14:35.820Z,103424.14
2019-03-29T03:19:38.048Z,103429.17
2019-03-29T03:24:40.388Z,103422.20
2019-03-29T03:29:42.576Z,103426.47
2019-03-29T03:34:45.260Z,103430.98
2019-03-29T03:39:47.552Z,103428.66
2019-03-29T03:44:50.142Z,103431.53
2019-03-29T03:49:52.292Z,103437.75
2019-03-29T03:54:54.608Z,103432.77
2019-03-29T03:59:56.809Z,103434.67
2019-03-29T04:04:58.987Z,103431.04
2019-03-29T04:10:01.615Z,103433.16
2019-03-29T04:15:03.780Z,103436.03
2019-03-29T04:20:06.066Z,103440.34
2019-03-29T04:25:08.204Z,103438.12
2019-03-29T04:30:10.472Z,103433.89
2019-03-29T04:35:12.626Z,103429.51
2019-03-29T04:40:14.918Z,103432.70
2019-03-29T04:45:17.106Z,103431.66
2019-03-29T04:50:19.371Z,103433.93
2019-03-29T04:55:21.536Z,103430.85
2019-03-29T05:00:23.732Z,103436.42
2019-03-29T05:05:25.914Z,103435.75
2019-03-29T05:10:28.091Z,103434.27
2019-03-29T05:15:30.239Z,103424.35
2019-03-29T05:20:32.458Z,103440.16
2019-03-29T05:25:34.656Z,103427.91
2019-03-29T05:30:36.754Z,103435.19
2019-03-29T05:35:39.230Z,103429.21
2019-03-29T05:40:41.346Z,103417.89
2019-03-29T05:45:43.560Z,103413.95
2019-03-29T05:50:46.013Z,103420.67
2019-03-29T05:55:48.538Z,103414.66
2019-03-29T06:00:50.942Z,103426.66
2019-03-29T06:05:53.114Z,103407.17
2019-03-29T06:10:55.282Z,103415.00
2019-03-29T06:15:58.062Z,103404.86
2019-03-29T06:21:00.262Z,103407.89
2019-03-29T06:26:02.467Z,103408.73
2019-03-29T06:31:04.806Z,103400.06
2019-03-29T06:36:07.420Z,103405.32
2019-03-29T06:41:09.621Z,103407.05
2019-03-29T06:46:12.488Z,103405.80
2019-03-29T06:51:14.677Z,103409.98
2019-03-29T06:56:16.934Z,103410.63
2019-03-29T07:01:19.189Z,103401.09
2019-03-29T07:06:22.589Z,103399.21
2019-03-29T07:11:25.538Z,103399.61
2019-03-29T07:16:27.922Z,103393.36
2019-03-29T07:21:30.745Z,103398.84
2019-03-29T07:26:32.967Z,103400.86
2019-03-29T07:31:35.154Z,103406.67
2019-03-29T07:36:37.338Z,103398.78
2019-03-29T07:41:39.713Z,103390.38
2019-03-29T07:46:41.934Z,103391.39
2019-03-29T07:51:44.276Z,103389.64
2019-03-29T07:56:46.783Z,103398.33
2019-03-29T08:01:48.981Z,103398.88
2019-03-29T08:06:51.202Z,103398.79
2019-03-29T08:11:55.124Z,103400.31
2019-03-29T08:16:57.879Z,103394.31
2019-03-29T08:22:00.473Z,103394.06
2019-03-29T08:27:02.698Z,103399.33
2019-03-29T08:32:04.809Z,103391.20
2019-03-29T08:37:06.972Z,103384.07
2019-03-29T08:42:09.622Z,103376.89
2019-03-29T08:47:12.209Z,103378.75
2019-03-29T08:52:14.465Z,103369.30
2019-03-29T08:57:16.617Z,103369.05
2019-03-29T09:02:18.781Z,103361.83
2019-03-29T09:07:21.363Z,103353.47
2019-03-29T09:12:23.630Z,103353.22
2019-03-29T09:17:25.962Z,103353.13
2019-03-29T09:22:28.122Z,103350.52
2019-03-29T09:27:32.014Z,103350.02
2019-03-29T09:32:34.473Z,103342.23
2019-03-29T09:37:36.660Z,103332.88
2019-03-29T09:42:38.932Z,103323.84
2019-03-29T09:47:41.185Z,103325.48
2019-03-29T09:52:43.435Z,103326.84
2019-03-29T09:57:45.620Z,103317.97
2019-03-29T10:02:47.858Z,103311.26
2019-03-29T10:07:50.061Z,103305.13
2019-03-29T10:12:52.286Z,103299.27
2019-03-29T10:17:54.497Z,103290.19
2019-03-29T10:22:56.663Z,103281.11
2019-03-29T10:27:58.804Z,103275.26
2019-03-29T10:33:00.961Z,103265.31
2019-03-29T10:38:03.154Z,103250.42
2019-03-29T10:43:05.317Z,103248.23
2019-03-29T10:48:07.520Z,103238.03
2019-03-29T10:53:09.758Z,103228.28
2019-03-29T10:58:11.950Z,103230.67
2019-03-29T11:03:15.499Z,103223.81
2019-03-29T11:08:17.683Z,103211.23
2019-03-29T11:13:19.842Z,103205.47
2019-03-29T11:18:24.722Z,103203.41
2019-03-29T11:23:30.927Z,103191.94
2019-03-29T11:28:33.124Z,103181.51
2019-03-29T11:33:35.314Z,103178.81
2019-03-29T11:38:37.562Z,103169.70
2019-03-29T11:43:40.396Z,103162.05
2019-03-29T11:48:42.726Z,103160.59
2019-03-29T11:53:44.904Z,103158.81
2019-03-29T11:58:47.637Z,103150.22
2019-03-29T12:03:49.982Z,103137.60
2019-03-29T12:08:52.146Z,103139.78
2019-03-29T12:13:55.903Z,103125.31
2019-03-29T12:18:58.318Z,103124.03
2019-03-29T12:24:00.671Z,103115.50
2019-03-29T12:29:03.012Z,103113.46
2019-03-29T12:34:05.521Z,103116.50
2019-03-29T12:39:07.725Z,103113.43
2019-03-29T12:44:09.920Z,103115.88
2019-03-29T12:49:12.054Z,103102.73
2019-03-29T12:54:14.187Z,103095.73
2019-03-29T12:59:16.356Z,103088.53
2019-03-29T13:04:18.557Z,103075.78
2019-03-29T13:09:20.776Z,103064.80
2019-03-29T13:14:24.034Z,103049.82
2019-03-29T13:19:26.311Z,103036.87
2019-03-29T13:24:28.464Z,103030.80
2019-03-29T13:29:31.974Z,103021.11
2019-03-29T13:34:34.726Z,103009.30
2019-03-29T13:39:36.856Z,102998.91
2019-03-29T13:44:38.935Z,102994.72
2019-03-29T13:49:41.036Z,102990.10
2019-03-29T13:54:43.280Z,102979.70
2019-03-29T13:59:45.453Z,102960.94
2019-03-29T14:04:47.550Z,102956.25
2019-03-29T14:09:49.702Z,102937.04
2019-03-29T14:14:51.844Z,102933.16
2019-03-29T14:19:54.088Z,102919.54
2019-03-29T14:24:56.584Z,102919.30
2019-03-29T14:30:04.775Z,102909.72
2019-03-29T14:35:06.614Z,102902.02
2019-03-29T14:40:09.010Z,102901.59
2019-03-29T14:45:11.359Z,102898.81
2019-03-29T14:50:14.192Z,102888.58
2019-03-29T14:55:16.565Z,102892.72
2019-03-29T15:00:34.155Z,102879.47
2019-03-29T15:05:37.412Z,102875.22
2019-03-29T15:10:39.988Z,102869.16
2019-03-29T15:15:42.419Z,102860.91
2019-03-29T15:20:53.442Z,102855.75
2019-03-29T15:25:50.361Z,102849.66
2019-03-29T15:30:53.706Z,102848.06
2019-03-29T15:35:59.917Z,102850.59
2019-03-29T15:41:05.683Z,102847.31
2019-03-29T15:46:08.167Z,102836.36
2019-03-29T15:51:11.094Z,102827.92
2019-03-29T15:56:13.641Z,102813.53
2019-03-29T16:01:16.117Z,102813.41
2019-03-29T16:06:18.618Z,102808.75
2019-03-29T16:11:22.534Z,102800.91
2019-03-29T16:16:25.194Z,102800.66
2019-03-29T16:21:27.720Z,102791.83
2019-03-29T16:26:30.186Z,102792.20
2019-03-29T16:31:32.776Z,102782.96
2019-03-29T16:36:35.052Z,102781.61
2019-03-29T16:41:37.323Z,102777.06
2019-03-29T16:46:40.123Z,102767.02
2019-03-29T16:51:42.364Z,102766.00
2019-03-29T16:56:44.686Z,102760.94
2019-03-29T17:01:46.924Z,102758.25
2019-03-29T17:06:50.150Z,102750.47
2019-03-29T17:11:52.294Z,102743.67
2019-03-29T17:16:54.442Z,102741.95
2019-03-29T17:21:57.131Z,102743.39
2019-03-29T17:26:59.475Z,102737.02
2019-03-29T17:32:01.705Z,102727.59
2019-03-29T17:37:03.853Z,102723.60
2019-03-29T17:42:08.199Z,102720.79
2019-03-29T17:47:10.501Z,102719.89
2019-03-29T17:52:12.769Z,102718.65
2019-03-29T17:57:15.056Z,102722.36
2019-03-29T18:02:17.188Z,102721.83
2019-03-29T18:07:19.403Z,102724.56
2019-03-29T18:12:22.025Z,102723.39
2019-03-29T18:17:24.846Z,102717.39
2019-03-29T18:22:27.071Z,102717.22
2019-03-29T18:27:29.305Z,102712.09
2019-03-29T18:32:31.893Z,102715.30
2019-03-29T18:37:34.360Z,102720.17
2019-03-29T18:42:36.695Z,102709.11
2019-03-29T18:47:41.858Z,102716.25
2019-03-29T18:52:44.591Z,102715.94
2019-03-29T18:57:49.036Z,102716.76
2019-03-29T19:02:54.494Z,102705.33
2019-03-29T19:07:58.313Z,102705.72
2019-03-29T19:13:00.793Z,102705.64
2019-03-29T19:18:03.445Z,102712.83
2019-03-29T19:23:05.573Z,102709.85
2019-03-29T19:28:08.163Z,102722.39
2019-03-29T19:33:10.347Z,102716.44
2019-03-29T19:38:12.591Z,102722.53
2019-03-29T19:43:20.741Z,102727.30
2019-03-29T19:48:22.888Z,102725.50
2019-03-29T19:53:26.118Z,102723.89
2019-03-29T19:58:28.333Z,102729.86
2019-03-29T20:03:30.524Z,102731.20
2019-03-29T20:08:32.955Z,102726.34
2019-03-29T20:13:35.137Z,102720.52
2019-03-29T20:18:38.287Z,102721.02
2019-03-29T20:23:40.533Z,102715.64
2019-03-29T20:28:45.209Z,102714.08
2019-03-29T20:33:47.880Z,102716.38
2019-03-29T20:38:51.584Z,102704.94
2019-03-29T20:43:53.827Z,102710.45
2019-03-29T20:49:06.315Z,102705.06
2019-03-29T20:54:08.484Z,102696.69
2019-03-29T20:59:10.897Z,102702.76
2019-03-29T21:04:13.420Z,102699.02
2019-03-29T21:09:15.512Z,102691.77
2019-03-29T21:14:18.063Z,102689.06
2019-03-29T21:19:20.482Z,102685.00
2019-03-29T21:24:22.774Z,102677.04
2019-03-29T21:29:25.117Z,102683.45
2019-03-29T21:34:27.679Z,102683.97
2019-03-29T21:39:31.378Z,102678.34
2019-03-29T21:44:33.728Z,102670.36
2019-03-29T21:49:36.248Z,102665.16
2019-03-29T21:54:39.261Z,102660.33
2019-03-29T21:59:41.518Z,102659.31
2019-03-29T22:04:43.744Z,102656.16
2019-03-29T22:09:45.956Z,102661.30
2019-03-29T22:14:48.106Z,102657.86
2019-03-29T22:19:51.149Z,102650.91
2019-03-29T22:24:53.301Z,102645.84
2019-03-29T22:29:55.991Z,102647.97
2019-03-29T22:34:58.308Z,102645.28
2019-03-29T22:40:00.433Z,102639.13
2019-03-29T22:45:02.971Z,102635.77
2019-03-29T22:50:06.031Z,102621.82
2019-03-29T22:55:08.285Z,102618.19
2019-03-29T23:00:17.832Z,102614.04
2019-03-29T23:05:20.147Z,102611.91
2019-03-29T23:10:22.280Z,102608.06
2019-03-29T23:15:24.454Z,102603.60
2019-03-29T23:20:27.397Z,102601.34
2019-03-29T23:25:29.558Z,102590.94
2019-03-29T23:30:32.052Z,102589.31
2019-03-29T23:35:34.166Z,102579.30
2019-03-29T23:40:36.698Z,102580.48
2019-03-29T23:45:39.145Z,102576.91
2019-03-29T23:50:41.278Z,102571.56
2019-03-29T23:55:43.418Z,102559.16
